MSC Barbara — HODU — position and weather

sailwx.info

Track history (hours):
 
Tides and Currents Weather Stations Pressure Air Temp Water Temp Dewpoint Dewpoint Depression Visibility Wind Speed Wind Dir Waves Ship Positions

MSC Barbara

Last reported at 2016-Aug-12 14:32 UTC. Time now 2016-Aug-24 08:30 UTC.
Position N 31°52' W 080°38'.
Warning: this ship's position is 11 days out of date.

Length 304 m; draft 11.1 m.

Type: Ship (hazmat cat A). MMSI: 353775000.

Date/timePositionNaut miles runAvg speedWind from/ knotsBaromVisibWave heightAir tempDewpointWater temp
2016-Aug-12 14:32N 31°52' W 080°38'1010.0
2016-Aug-12 13:33N 31°59' W 080°46'1110.7
2016-Aug-12 12:33N 32°04' W 080°57'8 8.0
2016-Aug-12 11:33N 32°06' W 081°06'2 2.4
2016-Aug-12 10:32N 32°07' W 081°08'0 0.0
2016-Aug-12 09:32N 32°07' W 081°08'0 0.0
2016-Aug-12 08:31N 32°07' W 081°08'0 0.0
2016-Aug-12 07:31N 32°07' W 081°08'0 0.0
2016-Aug-12 06:33N 32°07' W 081°08'0 0.0
2016-Aug-12 05:33N 32°07' W 081°08'0 0.0
2016-Aug-12 04:33N 32°07' W 081°08'0 0.0
2016-Aug-12 03:32N 32°07' W 081°08'0 0.0
2016-Aug-12 02:32N 32°07' W 081°08'0 0.0
2016-Aug-12 01:31N 32°07' W 081°08'0 0.0
2016-Aug-12 00:31N 32°07' W 081°08'0 0.0
2016-Aug-11 23:33N 32°07' W 081°08'0 0.0
2016-Aug-11 22:33N 32°07' W 081°08'0 0.0
2016-Aug-11 21:33N 32°07' W 081°08'0 0.2
2016-Aug-11 20:33N 32°08' W 081°08'4 4.5
2016-Aug-11 19:33N 32°05' W 081°04'7 7.0
2016-Aug-11 18:32N 32°03' W 080°56'1111.2
2016-Aug-11 17:33N 31°58' W 080°44'1110.7
2016-Aug-11 16:33N 31°56' W 080°32'37515.0
2016-Aug-10 15:33N 36°54' W 075°56'1514.8
2016-Aug-10 14:32N 37°06' W 076°07'1816.0
2016-Aug-10 13:25N 37°24' W 076°05'1514.6
2016-Aug-10 12:24N 37°39' W 076°08'1414.9
2016-Aug-10 11:26N 37°53' W 076°10'1415.6
2016-Aug-10 10:32N 38°07' W 076°14'1715.7
2016-Aug-10 09:27N 38°23' W 076°20'1515.5
2016-Aug-10 08:30N 38°37' W 076°26'1515.7
2016-Aug-10 07:33N 38°52' W 076°24'1514.7
2016-Aug-10 06:33N 39°06' W 076°24'1111.1
2016-Aug-10 05:33N 39°15' W 076°33'1 0.7
2016-Aug-10 04:32N 39°15' W 076°33'0 0.0
2016-Aug-10 03:29N 39°15' W 076°33'0 0.0
2016-Aug-10 02:28N 39°15' W 076°33'0 0.0
2016-Aug-10 01:28N 39°15' W 076°33'0 0.0
2016-Aug-10 00:33N 39°15' W 076°33'0 0.0
2016-Aug-09 23:33N 39°15' W 076°33'0 0.0
2016-Aug-09 21:32N 39°15' W 076°33'0 0.0
2016-Aug-09 19:31N 39°15' W 076°33'0 0.0
2016-Aug-09 18:28N 39°15' W 076°33'0 0.0
2016-Aug-09 17:33N 39°15' W 076°33'0 0.0
2016-Aug-09 16:33N 39°15' W 076°33'0 0.0
2016-Aug-09 15:30N 39°15' W 076°33'0 0.0
2016-Aug-09 14:29N 39°15' W 076°33'0 0.0
2016-Aug-09 13:32N 39°15' W 076°33'0 0.0
2016-Aug-09 12:31N 39°15' W 076°33'0 0.0
2016-Aug-09 11:28N 39°15' W 076°33'0 0.0
2016-Aug-09 10:33N 39°15' W 076°33'0 0.4
2016-Aug-09 09:33N 39°15' W 076°32'8 7.5
2016-Aug-09 08:33N 39°10' W 076°25'1313.1
2016-Aug-09 07:33N 38°57' W 076°23'3417.0
2016-Aug-09 05:33N 38°23' W 076°20'2017.9
2016-Aug-09 04:26N 38°04' W 076°13'6115.8
2016-Aug-09 00:33N 37°03' W 076°04'1313.1
2016-Aug-08 23:33N 36°53' W 075°53'68 6.8
2016-Aug-08 13:34N 37°46' W 074°59'4110.3
2016-Aug-08 09:33N 38°22' W 074°33'1010.3
2016-Aug-08 08:33N 38°31' W 074°27'1010.4
2016-Aug-08 07:33N 38°40' W 074°21'1110.5
2016-Aug-08 06:30N 38°50' W 074°14'4410.3
2016-Aug-08 02:13N 39°32' W 073°56'710.5
2016-Aug-08 01:32N 39°39' W 073°54'1010.5
2016-Aug-08 00:33N 39°49' W 073°53'1110.5
2016-Aug-07 23:29N 40°00' W 073°51'1010.5
2016-Aug-07 22:31N 40°10' W 073°50'20 9.4
2016-Aug-07 20:25N 40°29' W 073°55'1112.8
2016-Aug-07 19:33N 40°39' W 074°04'4 3.9
2016-Aug-07 18:33N 40°40' W 074°08'1 0.9
2016-Aug-07 17:33N 40°41' W 074°09'0 0.0
2016-Aug-07 15:29N 40°41' W 074°09'0 0.0
2016-Aug-07 14:31N 40°41' W 074°09'0 0.0
2016-Aug-07 13:31N 40°41' W 074°09'0 0.0
2016-Aug-07 12:30N 40°41' W 074°09'0 0.0
2016-Aug-07 09:05N 40°41' W 074°09'0 0.0
2016-Aug-07 08:23N 40°41' W 074°09'0 0.0
2016-Aug-07 07:31N 40°41' W 074°09'0 0.0
2016-Aug-07 06:31N 40°41' W 074°09'0 0.0
2016-Aug-07 04:33N 40°41' W 074°09'0 0.0
2016-Aug-07 03:30N 40°41' W 074°09'0 0.0
2016-Aug-07 02:32N 40°41' W 074°09'0 0.0
2016-Aug-07 01:32N 40°41' W 074°09'0 0.0
2016-Aug-07 00:31N 40°41' W 074°09'0 0.0
2016-Aug-06 23:31N 40°41' W 074°09'0 0.0
2016-Aug-06 22:30N 40°41' W 074°09'0 0.0
2016-Aug-06 21:33N 40°41' W 074°09'3 2.6
2016-Aug-06 20:33N 40°39' W 074°09'6 6.2
2016-Aug-06 19:33N 40°35' W 074°02'1313.0
2016-Aug-06 18:33N 40°27' W 073°49'2411.9
2016-Aug-06 16:31N 40°03' W 073°43'1616.0
2016-Aug-06 15:31N 39°47' W 073°41'8319.4
2016-Aug-06 11:15N 38°32' W 074°26'12117.6
2016-Aug-06 04:25N 36°54' W 075°55'910.7
2016-Aug-06 03:33N 36°58' W 076°05'1211.7
2016-Aug-06 02:30N 36°58' W 076°20'5 5.4
2016-Aug-06 01:33N 36°52' W 076°21'0 0.0
2016-Aug-06 00:32N 36°52' W 076°21'0 0.0
2016-Aug-05 22:31N 36°52' W 076°21'0 0.0
2016-Aug-05 20:31N 36°52' W 076°21'0 0.1
2016-Aug-05 19:33N 36°52' W 076°21'0 0.0
2016-Aug-05 18:33N 36°52' W 076°21'0 0.0
2016-Aug-05 17:32N 36°52' W 076°21'0 0.0
2016-Aug-05 16:29N 36°52' W 076°21'0 0.0
2016-Aug-05 15:25N 36°52' W 076°21'0 0.0
2016-Aug-05 14:31N 36°52' W 076°21'0 0.0
2016-Aug-05 13:31N 36°52' W 076°21'0 0.0
2016-Aug-05 12:33N 36°52' W 076°21'0 0.0
2016-Aug-05 11:33N 36°52' W 076°21'0 0.0
2016-Aug-05 10:33N 36°52' W 076°21'5 4.9
2016-Aug-05 09:33N 36°57' W 076°20'9 9.4
2016-Aug-05 08:33N 36°59' W 076°09'1211.5
2016-Aug-05 07:33N 36°55' W 075°55'62115.3
2016-Aug-03 15:03N 27°07' W 079°50'919.1
2016-Aug-03 14:33N 26°58' W 079°51'1918.9
2016-Aug-03 13:33N 26°39' W 079°53'1918.7
2016-Aug-03 12:33N 26°21' W 079°57'1616.3
2016-Aug-03 11:33N 26°06' W 080°05'3 2.4
2016-Aug-03 10:29N 26°04' W 080°07'0 0.0
2016-Aug-03 09:23N 26°04' W 080°07'0 0.0
2016-Aug-03 08:28N 26°04' W 080°07'0 0.0
2016-Aug-03 07:25N 26°04' W 080°07'0 0.0
2016-Aug-03 06:31N 26°04' W 080°07'0 0.0
2016-Aug-03 04:33N 26°04' W 080°07'0 0.0
2016-Aug-03 01:31N 26°04' W 080°07'0 0.0
2016-Aug-03 00:22N 26°04' W 080°07'0 0.0
2016-Aug-02 23:31N 26°04' W 080°07'0 0.0
2016-Aug-02 22:24N 26°04' W 080°07'0 0.0
2016-Aug-02 21:33N 26°04' W 080°07'0 0.0
2016-Aug-02 20:29N 26°04' W 080°07'0 0.0
2016-Aug-02 19:17N 26°04' W 080°07'1 1.8
2016-Aug-02 18:33N 26°06' W 080°07'6 6.2
2016-Aug-02 17:33N 26°07' W 080°00'1918.8
2016-Aug-02 16:33N 26°13' W 079°40'  
Track history (hours):
 
Tides and Currents Weather Stations Pressure Air Temp Water Temp Dewpoint Dewpoint Depression Visibility Wind Speed Wind Dir Waves Ship Positions

MSC Barbara

Last reported at 2016-Aug-12 14:32 UTC. Time now 2016-Aug-24 08:30 UTC.
Position N 31°52' W 080°38'.
Warning: this ship's position is 11 days out of date.

Length 304 m; draft 11.1 m.

Type: Ship (hazmat cat A). MMSI: 353775000.

Date/timePositionNaut miles runAvg speedWind from/ knotsBaromVisibWave heightAir tempDewpointWater temp
2016-Aug-12 14:32N 31°52' W 080°38'1010.0
2016-Aug-12 13:33N 31°59' W 080°46'1110.7
2016-Aug-12 12:33N 32°04' W 080°57'8 8.0
2016-Aug-12 11:33N 32°06' W 081°06'2 2.4
2016-Aug-12 10:32N 32°07' W 081°08'0 0.0
2016-Aug-12 09:32N 32°07' W 081°08'0 0.0
2016-Aug-12 08:31N 32°07' W 081°08'0 0.0
2016-Aug-12 07:31N 32°07' W 081°08'0 0.0
2016-Aug-12 06:33N 32°07' W 081°08'0 0.0
2016-Aug-12 05:33N 32°07' W 081°08'0 0.0
2016-Aug-12 04:33N 32°07' W 081°08'0 0.0
2016-Aug-12 03:32N 32°07' W 081°08'0 0.0
2016-Aug-12 02:32N 32°07' W 081°08'0 0.0
2016-Aug-12 01:31N 32°07' W 081°08'0 0.0
2016-Aug-12 00:31N 32°07' W 081°08'0 0.0
2016-Aug-11 23:33N 32°07' W 081°08'0 0.0
2016-Aug-11 22:33N 32°07' W 081°08'0 0.0
2016-Aug-11 21:33N 32°07' W 081°08'0 0.2
2016-Aug-11 20:33N 32°08' W 081°08'4 4.5
2016-Aug-11 19:33N 32°05' W 081°04'7 7.0
2016-Aug-11 18:32N 32°03' W 080°56'1111.2
2016-Aug-11 17:33N 31°58' W 080°44'1110.7
2016-Aug-11 16:33N 31°56' W 080°32'37515.0
2016-Aug-10 15:33N 36°54' W 075°56'1514.8
2016-Aug-10 14:32N 37°06' W 076°07'1816.0
2016-Aug-10 13:25N 37°24' W 076°05'1514.6
2016-Aug-10 12:24N 37°39' W 076°08'1414.9
2016-Aug-10 11:26N 37°53' W 076°10'1415.6
2016-Aug-10 10:32N 38°07' W 076°14'1715.7
2016-Aug-10 09:27N 38°23' W 076°20'1515.5
2016-Aug-10 08:30N 38°37' W 076°26'1515.7
2016-Aug-10 07:33N 38°52' W 076°24'1514.7
2016-Aug-10 06:33N 39°06' W 076°24'1111.1
2016-Aug-10 05:33N 39°15' W 076°33'1 0.7
2016-Aug-10 04:32N 39°15' W 076°33'0 0.0
2016-Aug-10 03:29N 39°15' W 076°33'0 0.0
2016-Aug-10 02:28N 39°15' W 076°33'0 0.0
2016-Aug-10 01:28N 39°15' W 076°33'0 0.0
2016-Aug-10 00:33N 39°15' W 076°33'0 0.0
2016-Aug-09 23:33N 39°15' W 076°33'0 0.0
2016-Aug-09 21:32N 39°15' W 076°33'0 0.0
2016-Aug-09 19:31N 39°15' W 076°33'0 0.0
2016-Aug-09 18:28N 39°15' W 076°33'0 0.0
2016-Aug-09 17:33N 39°15' W 076°33'0 0.0
2016-Aug-09 16:33N 39°15' W 076°33'0 0.0
2016-Aug-09 15:30N 39°15' W 076°33'0 0.0
2016-Aug-09 14:29N 39°15' W 076°33'0 0.0
2016-Aug-09 13:32N 39°15' W 076°33'0 0.0
2016-Aug-09 12:31N 39°15' W 076°33'0 0.0
2016-Aug-09 11:28N 39°15' W 076°33'0 0.0
2016-Aug-09 10:33N 39°15' W 076°33'0 0.4
2016-Aug-09 09:33N 39°15' W 076°32'8 7.5
2016-Aug-09 08:33N 39°10' W 076°25'1313.1
2016-Aug-09 07:33N 38°57' W 076°23'3417.0
2016-Aug-09 05:33N 38°23' W 076°20'2017.9
2016-Aug-09 04:26N 38°04' W 076°13'6115.8
2016-Aug-09 00:33N 37°03' W 076°04'1313.1
2016-Aug-08 23:33N 36°53' W 075°53'68 6.8
2016-Aug-08 13:34N 37°46' W 074°59'4110.3
2016-Aug-08 09:33N 38°22' W 074°33'1010.3
2016-Aug-08 08:33N 38°31' W 074°27'1010.4
2016-Aug-08 07:33N 38°40' W 074°21'1110.5
2016-Aug-08 06:30N 38°50' W 074°14'4410.3
2016-Aug-08 02:13N 39°32' W 073°56'710.5
2016-Aug-08 01:32N 39°39' W 073°54'1010.5
2016-Aug-08 00:33N 39°49' W 073°53'1110.5
2016-Aug-07 23:29N 40°00' W 073°51'1010.5
2016-Aug-07 22:31N 40°10' W 073°50'20 9.4
2016-Aug-07 20:25N 40°29' W 073°55'1112.8
2016-Aug-07 19:33N 40°39' W 074°04'4 3.9
2016-Aug-07 18:33N 40°40' W 074°08'1 0.9
2016-Aug-07 17:33N 40°41' W 074°09'0 0.0
2016-Aug-07 15:29N 40°41' W 074°09'0 0.0
2016-Aug-07 14:31N 40°41' W 074°09'0 0.0
2016-Aug-07 13:31N 40°41' W 074°09'0 0.0
2016-Aug-07 12:30N 40°41' W 074°09'0 0.0
2016-Aug-07 09:05N 40°41' W 074°09'0 0.0
2016-Aug-07 08:23N 40°41' W 074°09'0 0.0
2016-Aug-07 07:31N 40°41' W 074°09'0 0.0
2016-Aug-07 06:31N 40°41' W 074°09'0 0.0
2016-Aug-07 04:33N 40°41' W 074°09'0 0.0
2016-Aug-07 03:30N 40°41' W 074°09'0 0.0
2016-Aug-07 02:32N 40°41' W 074°09'0 0.0
2016-Aug-07 01:32N 40°41' W 074°09'0 0.0
2016-Aug-07 00:31N 40°41' W 074°09'0 0.0
2016-Aug-06 23:31N 40°41' W 074°09'0 0.0
2016-Aug-06 22:30N 40°41' W 074°09'0 0.0
2016-Aug-06 21:33N 40°41' W 074°09'3 2.6
2016-Aug-06 20:33N 40°39' W 074°09'6 6.2
2016-Aug-06 19:33N 40°35' W 074°02'1313.0
2016-Aug-06 18:33N 40°27' W 073°49'2411.9
2016-Aug-06 16:31N 40°03' W 073°43'1616.0
2016-Aug-06 15:31N 39°47' W 073°41'8319.4
2016-Aug-06 11:15N 38°32' W 074°26'12117.6
2016-Aug-06 04:25N 36°54' W 075°55'910.7
2016-Aug-06 03:33N 36°58' W 076°05'1211.7
2016-Aug-06 02:30N 36°58' W 076°20'5 5.4
2016-Aug-06 01:33N 36°52' W 076°21'0 0.0
2016-Aug-06 00:32N 36°52' W 076°21'0 0.0
2016-Aug-05 22:31N 36°52' W 076°21'0 0.0
2016-Aug-05 20:31N 36°52' W 076°21'0 0.1
2016-Aug-05 19:33N 36°52' W 076°21'0 0.0
2016-Aug-05 18:33N 36°52' W 076°21'0 0.0
2016-Aug-05 17:32N 36°52' W 076°21'0 0.0
2016-Aug-05 16:29N 36°52' W 076°21'0 0.0
2016-Aug-05 15:25N 36°52' W 076°21'0 0.0
2016-Aug-05 14:31N 36°52' W 076°21'0 0.0
2016-Aug-05 13:31N 36°52' W 076°21'0 0.0
2016-Aug-05 12:33N 36°52' W 076°21'0 0.0
2016-Aug-05 11:33N 36°52' W 076°21'0 0.0
2016-Aug-05 10:33N 36°52' W 076°21'5 4.9
2016-Aug-05 09:33N 36°57' W 076°20'9 9.4
2016-Aug-05 08:33N 36°59' W 076°09'1211.5
2016-Aug-05 07:33N 36°55' W 075°55'62115.3
2016-Aug-03 15:03N 27°07' W 079°50'919.1
2016-Aug-03 14:33N 26°58' W 079°51'1918.9
2016-Aug-03 13:33N 26°39' W 079°53'1918.7
2016-Aug-03 12:33N 26°21' W 079°57'1616.3
2016-Aug-03 11:33N 26°06' W 080°05'3 2.4
2016-Aug-03 10:29N 26°04' W 080°07'0 0.0
2016-Aug-03 09:23N 26°04' W 080°07'0 0.0
2016-Aug-03 08:28N 26°04' W 080°07'0 0.0
2016-Aug-03 07:25N 26°04' W 080°07'0 0.0
2016-Aug-03 06:31N 26°04' W 080°07'0 0.0
2016-Aug-03 04:33N 26°04' W 080°07'0 0.0
2016-Aug-03 01:31N 26°04' W 080°07'0 0.0
2016-Aug-03 00:22N 26°04' W 080°07'0 0.0
2016-Aug-02 23:31N 26°04' W 080°07'0 0.0
2016-Aug-02 22:24N 26°04' W 080°07'0 0.0
2016-Aug-02 21:33N 26°04' W 080°07'0 0.0
2016-Aug-02 20:29N 26°04' W 080°07'0 0.0
2016-Aug-02 19:17N 26°04' W 080°07'1 1.8
2016-Aug-02 18:33N 26°06' W 080°07'6 6.2
2016-Aug-02 17:33N 26°07' W 080°00'1918.8
2016-Aug-02 16:33N 26°13' W 079°40'  

Dump ship's entire track history